Time;durP1;ratioP1;P1;durP2;ratioP2;P2;SDS_P1;SDS_P2;PMS_P1;PMS_P2;Temp;Humidity;BMP_temperature;BMP_pressure;BME280_temperature;BME280_humidity;BME280_pressure;Samples;Min_cycle;Max_cycle;Signal;HPM_P1;HPM_P2
2022/07/25 00:00:30;;;;;;;7.10;6.40;;;22.70;76.90;;;;;;5078064;28;20464;-79
2022/07/25 00:02:56;;;;;;;7.90;7.10;;;22.70;76.90;;;;;;5111913;28;20046;-81
2022/07/25 00:05:21;;;;;;;12.07;8.43;;;22.60;76.80;;;;;;5077902;28;20083;-80
2022/07/25 00:07:48;;;;;;;9.73;8.00;;;22.60;76.90;;;;;;5112041;28;20387;-77
2022/07/25 00:10:14;;;;;;;10.32;9.30;;;22.50;77.10;;;;;;5094848;28;20077;-78
2022/07/25 00:12:39;;;;;;;9.02;7.35;;;22.60;77.20;;;;;;5061423;28;20098;-80
2022/07/25 00:15:06;;;;;;;9.55;8.68;;;22.50;77.20;;;;;;5061513;28;20503;-78
2022/07/25 00:17:32;;;;;;;9.23;8.50;;;22.50;77.30;;;;;;5094992;28;20388;-79
2022/07/25 00:19:57;;;;;;;11.38;10.38;;;22.50;77.30;;;;;;5061408;28;20035;-79
2022/07/25 00:22:23;;;;;;;10.80;9.90;;;22.50;77.30;;;;;;5094832;28;20560;-76
2022/07/25 00:24:49;;;;;;;10.52;9.52;;;22.50;77.20;;;;;;5113859;28;20135;-81
2022/07/25 00:27:14;;;;;;;17.73;16.23;;;22.50;77.20;;;;;;5078250;28;20052;-80
2022/07/25 00:29:40;;;;;;;14.43;13.23;;;22.50;77.20;;;;;;5095092;28;20060;-77
2022/07/25 00:32:06;;;;;;;11.77;10.63;;;22.50;77.40;;;;;;5078444;28;20052;-78
2022/07/25 00:34:32;;;;;;;9.48;8.68;;;22.50;77.50;;;;;;5111768;28;20048;-78
2022/07/25 00:36:58;;;;;;;9.32;6.82;;;22.50;77.50;;;;;;5094944;28;20043;-79
2022/07/25 00:39:23;;;;;;;7.40;6.55;;;22.50;77.60;;;;;;5061372;28;20047;-78
2022/07/25 00:41:49;;;;;;;7.85;6.68;;;22.50;77.70;;;;;;5078233;28;20044;-79
2022/07/25 00:44:27;;;;;;;7.50;6.22;;;22.40;77.70;;;;;;5094785;28;20403;-81
2022/07/25 00:46:53;;;;;;;6.68;6.07;;;22.40;77.90;;;;;;5095083;28;20455;-79
2022/07/25 00:49:19;;;;;;;7.18;6.47;;;22.40;77.80;;;;;;5094911;28;20040;-78
2022/07/25 00:51:45;;;;;;;8.50;7.65;;;22.40;77.90;;;;;;5077903;28;20547;-78
2022/07/25 00:54:11;;;;;;;9.52;7.68;;;22.40;77.90;;;;;;5094622;28;20040;-78
2022/07/25 00:56:37;;;;;;;10.20;9.05;;;22.30;77.70;;;;;;5077673;28;20032;-78
2022/07/25 00:59:03;;;;;;;10.80;9.68;;;22.30;77.80;;;;;;5094547;28;20055;-76
2022/07/25 01:01:29;;;;;;;12.88;9.45;;;22.20;77.80;;;;;;5094762;28;20040;-79
2022/07/25 01:03:55;;;;;;;8.30;7.45;;;22.30;77.90;;;;;;5094327;28;20087;-79
2022/07/25 01:06:21;;;;;;;8.02;6.85;;;22.20;77.90;;;;;;5077574;28;20047;-78
2022/07/25 01:08:47;;;;;;;8.07;6.72;;;22.20;78.00;;;;;;5094339;28;20044;-76
2022/07/25 01:11:13;;;;;;;7.03;6.32;;;22.20;78.30;;;;;;5094336;28;20044;-78
2022/07/25 01:13:39;;;;;;;7.45;6.05;;;22.10;78.30;;;;;;5077236;28;20050;-79
2022/07/25 01:16:05;;;;;;;6.60;6.00;;;22.00;78.40;;;;;;5094164;28;20225;-78
2022/07/25 01:18:30;;;;;;;7.85;7.15;;;22.00;78.50;;;;;;5077342;28;20470;-77
2022/07/25 01:20:56;;;;;;;8.05;7.10;;;21.90;78.70;;;;;;5111150;28;20044;-79
2022/07/25 01:23:22;;;;;;;6.57;5.97;;;21.90;79.00;;;;;;5111028;28;20043;-78
2022/07/25 01:25:48;;;;;;;7.82;6.45;;;21.90;79.00;;;;;;5111010;28;20050;-79
2022/07/25 01:28:13;;;;;;;6.95;6.32;;;21.80;79.10;;;;;;5110775;28;20052;-79
2022/07/25 01:30:40;;;;;;;7.32;6.63;;;21.70;79.40;;;;;;5110885;28;20044;-78
2022/07/25 01:33:06;;;;;;;8.07;7.07;;;21.60;79.60;;;;;;5110827;28;20461;-79
2022/07/25 01:35:31;;;;;;;8.20;6.75;;;21.60;79.90;;;;;;5093296;28;20043;-79
2022/07/25 01:37:57;;;;;;;7.45;6.65;;;21.50;80.00;;;;;;5077032;28;20065;-77
2022/07/25 01:40:23;;;;;;;8.02;7.22;;;21.50;80.10;;;;;;5110721;28;20101;-77
2022/07/25 01:42:48;;;;;;;10.35;9.40;;;21.50;80.30;;;;;;5094003;28;20040;-78
2022/07/25 01:45:14;;;;;;;9.10;8.23;;;21.40;80.40;;;;;;5093562;28;20503;-77
2022/07/25 01:47:40;;;;;;;12.05;9.88;;;21.40;80.60;;;;;;5110556;28;20040;-77
2022/07/25 01:50:07;;;;;;;10.43;9.35;;;21.30;80.80;;;;;;5110639;28;20039;-78
2022/07/25 01:52:33;;;;;;;10.90;9.80;;;21.30;81.00;;;;;;5093485;28;20100;-77
2022/07/25 01:54:58;;;;;;;10.43;9.52;;;21.30;81.20;;;;;;5076640;28;20044;-77
2022/07/25 01:57:24;;;;;;;11.00;10.00;;;21.30;81.10;;;;;;5110722;28;20036;-76
2022/07/25 01:59:50;;;;;;;11.27;10.18;;;21.30;81.00;;;;;;5093559;28;20071;-76
2022/07/25 02:02:15;;;;;;;10.93;9.82;;;21.20;81.10;;;;;;5076529;28;20476;-78
2022/07/25 02:04:41;;;;;;;10.60;9.60;;;21.20;81.10;;;;;;5110207;28;20079;-78
2022/07/25 02:07:07;;;;;;;10.73;9.50;;;21.10;81.10;;;;;;5076350;28;20058;-78
2022/07/25 02:09:32;;;;;;;10.98;9.77;;;21.20;80.90;;;;;;5076332;28;20044;-80
2022/07/25 02:11:58;;;;;;;10.18;9.25;;;21.20;80.80;;;;;;5093130;28;20044;-77
2022/07/25 02:14:24;;;;;;;9.00;7.97;;;21.20;80.90;;;;;;5076081;28;20032;-78
2022/07/25 02:16:49;;;;;;;11.00;9.82;;;21.10;81.00;;;;;;5076148;28;20044;-77
2022/07/25 02:19:15;;;;;;;10.68;9.43;;;21.10;81.10;;;;;;5076369;28;20068;-77
2022/07/25 02:21:41;;;;;;;9.85;8.90;;;21.20;81.20;;;;;;5093198;28;20044;-79
2022/07/25 02:24:07;;;;;;;10.07;9.07;;;21.20;81.50;;;;;;5109836;28;20399;-78
2022/07/25 02:26:33;;;;;;;10.00;9.10;;;21.20;81.60;;;;;;5110377;28;20419;-76
2022/07/25 02:28:58;;;;;;;10.10;9.10;;;21.20;81.60;;;;;;5062688;28;20047;-76
2022/07/25 02:31:24;;;;;;;10.40;9.40;;;21.20;81.70;;;;;;5113212;28;20044;-78
2022/07/25 02:33:50;;;;;;;10.18;9.05;;;21.20;81.90;;;;;;5079472;28;20043;-77
2022/07/25 02:36:16;;;;;;;10.27;9.27;;;21.20;82.00;;;;;;5113263;28;20039;-78
2022/07/25 02:38:41;;;;;;;10.02;9.07;;;21.20;82.10;;;;;;5113272;28;20036;-76
2022/07/25 02:41:07;;;;;;;9.77;8.77;;;21.20;82.30;;;;;;5113226;28;20036;-76
2022/07/25 02:43:33;;;;;;;9.57;8.57;;;21.20;82.40;;;;;;5113074;28;20514;-78
2022/07/25 02:45:59;;;;;;;11.82;9.30;;;21.20;82.70;;;;;;5112576;28;20047;-77
2022/07/25 02:48:25;;;;;;;9.63;8.63;;;21.10;83.00;;;;;;5078360;28;20040;-75
2022/07/25 02:50:50;;;;;;;9.38;8.38;;;21.20;83.00;;;;;;5112810;28;20051;-78
2022/07/25 02:53:16;;;;;;;9.15;8.25;;;21.10;83.10;;;;;;5112665;28;20061;-79
2022/07/25 02:55:42;;;;;;;9.13;8.23;;;21.10;83.20;;;;;;5112868;28;20036;-76
2022/07/25 02:58:07;;;;;;;9.68;8.75;;;21.10;83.40;;;;;;5079015;28;20051;-77
2022/07/25 03:00:33;;;;;;;11.02;8.45;;;21.00;83.40;;;;;;5095504;28;20042;-75
2022/07/25 03:02:59;;;;;;;8.95;8.15;;;21.00;83.60;;;;;;5078770;28;20073;-78
2022/07/25 03:05:25;;;;;;;9.45;8.05;;;21.00;83.60;;;;;;5095450;28;20031;-76
2022/07/25 03:07:51;;;;;;;8.02;7.32;;;21.00;83.50;;;;;;5078605;28;20038;-76
2022/07/25 03:10:17;;;;;;;10.50;8.55;;;21.00;83.60;;;;;;5061996;28;20036;-75
2022/07/25 03:12:44;;;;;;;9.43;8.43;;;20.90;83.70;;;;;;5095327;28;20043;-77
2022/07/25 03:15:11;;;;;;;9.32;8.45;;;20.90;83.90;;;;;;5095836;28;20126;-76
2022/07/25 03:17:37;;;;;;;9.57;8.52;;;20.90;84.00;;;;;;5078577;28;20108;-77
2022/07/25 03:20:04;;;;;;;9.27;8.48;;;20.90;84.10;;;;;;5095637;28;20440;-78
2022/07/25 03:22:30;;;;;;;10.38;8.43;;;20.90;84.10;;;;;;5112575;28;20061;-77
2022/07/25 03:24:55;;;;;;;9.18;8.27;;;20.90;84.30;;;;;;5078415;28;20113;-79
2022/07/25 03:27:21;;;;;;;9.57;8.65;;;20.90;84.40;;;;;;5112060;28;20086;-78
2022/07/25 03:29:47;;;;;;;9.35;8.50;;;20.90;84.20;;;;;;5112115;28;20039;-76
2022/07/25 03:32:12;;;;;;;10.63;9.50;;;20.80;84.30;;;;;;5095355;28;20043;-79
2022/07/25 03:34:38;;;;;;;9.43;8.40;;;20.90;84.40;;;;;;5078229;28;20360;-78
2022/07/25 03:37:04;;;;;;;7.03;6.28;;;20.80;84.70;;;;;;5112314;28;20387;-77
2022/07/25 03:39:31;;;;;;;11.27;9.07;;;20.80;84.60;;;;;;5095197;28;20040;-75
2022/07/25 03:41:56;;;;;;;7.38;6.68;;;20.80;84.30;;;;;;5078412;28;20039;-79
2022/07/25 03:44:23;;;;;;;9.77;8.82;;;20.80;84.50;;;;;;5077891;28;20122;-76
2022/07/25 03:46:50;;;;;;;9.70;8.43;;;20.80;84.00;;;;;;5094545;28;20071;-78
2022/07/25 03:49:16;;;;;;;10.15;9.07;;;20.80;84.50;;;;;;5111607;28;20044;-78
2022/07/25 03:51:42;;;;;;;11.23;9.35;;;20.70;84.40;;;;;;5078156;28;20443;-76
2022/07/25 03:54:12;;;;;;;10.05;8.82;;;20.70;84.30;;;;;;5078122;28;20044;-77
2022/07/25 03:56:40;;;;;;;12.23;8.77;;;20.70;84.50;;;;;;5078114;28;20047;-77
2022/07/25 03:59:07;;;;;;;9.75;8.60;;;20.60;84.60;;;;;;5097560;28;20510;-78
2022/07/25 04:01:33;;;;;;;12.75;9.75;;;20.60;85.10;;;;;;5116314;28;20424;-77
2022/07/25 04:03:59;;;;;;;10.57;9.57;;;20.60;84.40;;;;;;5082046;28;20100;-76
2022/07/25 04:06:26;;;;;;;9.63;8.63;;;20.50;84.40;;;;;;5098966;28;20070;-77
2022/07/25 04:08:53;;;;;;;10.10;9.15;;;20.60;84.50;;;;;;5081967;28;20045;-79
2022/07/25 04:11:18;;;;;;;10.23;9.23;;;20.50;84.70;;;;;;5099023;28;20126;-78
2022/07/25 04:13:44;;;;;;;10.15;9.25;;;20.50;84.60;;;;;;5098642;28;20127;-78
2022/07/25 04:16:10;;;;;;;10.43;9.35;;;20.50;84.70;;;;;;5115805;28;20048;-77
2022/07/25 04:18:36;;;;;;;11.30;10.15;;;20.50;85.00;;;;;;5098993;28;20036;-77
2022/07/25 04:21:02;;;;;;;13.63;10.05;;;20.50;84.90;;;;;;5098675;28;20553;-79
2022/07/25 04:23:29;;;;;;;10.50;9.35;;;20.50;84.90;;;;;;5098848;28;20082;-76
2022/07/25 04:25:55;;;;;;;14.68;10.93;;;20.50;85.10;;;;;;5099089;28;20096;-76
2022/07/25 04:28:20;;;;;;;11.35;10.15;;;20.40;85.20;;;;;;5081658;28;20052;-77
2022/07/25 04:30:46;;;;;;;10.35;9.45;;;20.40;85.00;;;;;;5098546;28;20075;-77
2022/07/25 04:33:12;;;;;;;10.90;9.80;;;20.50;84.90;;;;;;5081776;28;20039;-80
2022/07/25 04:35:38;;;;;;;13.38;10.52;;;20.40;85.10;;;;;;5115304;28;20031;-77
2022/07/25 04:38:04;;;;;;;13.15;9.57;;;20.40;85.40;;;;;;5098378;28;20130;-80
2022/07/25 04:40:30;;;;;;;11.55;10.45;;;20.50;85.10;;;;;;5098244;28;20104;-77
2022/07/25 04:42:56;;;;;;;11.45;9.95;;;20.40;85.30;;;;;;5081328;28;20032;-77
2022/07/25 04:45:22;;;;;;;10.98;9.88;;;20.50;85.40;;;;;;5098138;28;20031;-78
2022/07/25 04:47:49;;;;;;;12.18;11.00;;;20.50;85.30;;;;;;5098184;28;20480;-78
2022/07/25 04:50:15;;;;;;;13.43;10.10;;;20.50;85.20;;;;;;5098034;28;20556;-77
2022/07/25 04:52:41;;;;;;;11.85;10.65;;;20.50;85.30;;;;;;5098071;28;20480;-76
2022/07/25 04:55:07;;;;;;;12.20;10.43;;;20.50;85.50;;;;;;5097849;28;20377;-77
2022/07/25 04:57:33;;;;;;;12.63;11.32;;;20.50;85.20;;;;;;5098037;28;20053;-77
2022/07/25 04:59:59;;;;;;;11.15;10.05;;;20.50;85.50;;;;;;5097947;28;20118;-77
2022/07/25 05:02:25;;;;;;;11.93;10.77;;;20.50;85.80;;;;;;5115176;28;20065;-79
2022/07/25 05:04:51;;;;;;;13.60;10.93;;;20.60;85.60;;;;;;5097966;28;20036;-74
2022/07/25 05:07:17;;;;;;;14.25;10.82;;;20.60;85.50;;;;;;5097791;28;20415;-76
2022/07/25 05:09:43;;;;;;;12.43;11.18;;;20.60;85.50;;;;;;5096855;28;20044;-79
2022/07/25 05:12:08;;;;;;;11.27;10.18;;;20.60;85.50;;;;;;5098003;28;20036;-76
2022/07/25 05:14:34;;;;;;;11.02;9.93;;;20.60;86.20;;;;;;5097506;28;20046;-75
2022/07/25 05:17:00;;;;;;;16.67;12.60;;;20.60;86.30;;;;;;5114891;28;20039;-75
2022/07/25 05:19:25;;;;;;;11.75;10.57;;;20.60;86.00;;;;;;5097453;28;20039;-74
2022/07/25 05:21:51;;;;;;;12.80;11.38;;;20.70;86.10;;;;;;5097449;28;20040;-74
2022/07/25 05:24:17;;;;;;;13.02;11.68;;;20.60;85.90;;;;;;5097375;28;20043;-75
2022/07/25 05:26:43;;;;;;;13.27;11.93;;;20.70;86.00;;;;;;5097155;28;20044;-74
2022/07/25 05:29:09;;;;;;;12.27;11.05;;;20.70;86.00;;;;;;5097436;28;20047;-77
2022/07/25 05:31:35;;;;;;;12.55;11.25;;;20.70;86.00;;;;;;5080565;28;20502;-77
2022/07/25 05:34:01;;;;;;;12.05;10.88;;;20.70;85.90;;;;;;5097185;28;20042;-78
2022/07/25 05:36:27;;;;;;;12.80;11.30;;;20.70;86.00;;;;;;5097230;28;20032;-76
2022/07/25 05:38:53;;;;;;;12.20;11.00;;;20.80;86.10;;;;;;5097009;28;20126;-75
2022/07/25 05:41:19;;;;;;;11.75;10.52;;;20.80;85.90;;;;;;5097148;28;20036;-77
2022/07/25 05:43:46;;;;;;;12.25;10.82;;;20.80;85.80;;;;;;5096960;28;20071;-77
2022/07/25 05:46:12;;;;;;;12.02;10.55;;;20.80;85.60;;;;;;5096965;28;20050;-76
2022/07/25 05:48:38;;;;;;;14.63;11.82;;;20.90;85.80;;;;;;5096900;28;20040;-77
2022/07/25 05:51:04;;;;;;;12.60;11.30;;;20.90;85.70;;;;;;5101621;27;20104;-76
2022/07/25 05:53:29;;;;;;;14.90;11.25;;;20.90;85.90;;;;;;5086109;27;20039;-76
2022/07/25 05:55:55;;;;;;;13.50;12.20;;;21.00;86.70;;;;;;5116917;27;20479;-76
2022/07/25 05:58:21;;;;;;;13.73;11.65;;;21.00;86.00;;;;;;5132193;27;20414;-77
2022/07/25 06:00:49;;;;;;;12.50;11.25;;;21.10;86.00;;;;;;5120337;27;20047;-77
2022/07/25 06:03:16;;;;;;;13.18;11.80;;;21.20;86.10;;;;;;5098408;27;20062;-76
2022/07/25 06:05:42;;;;;;;15.23;12.40;;;21.30;86.60;;;;;;5109208;27;20040;-76
2022/07/25 06:08:08;;;;;;;13.15;11.60;;;21.30;86.50;;;;;;5091913;27;20050;-77
2022/07/25 06:10:33;;;;;;;13.40;12.00;;;21.40;86.00;;;;;;5099912;27;20047;-76
2022/07/25 06:12:59;;;;;;;13.90;12.50;;;21.40;85.80;;;;;;5101883;27;20039;-77
2022/07/25 06:15:25;;;;;;;12.93;11.68;;;21.50;86.00;;;;;;5097718;27;20040;-76
2022/07/25 06:17:50;;;;;;;12.98;11.52;;;21.50;86.00;;;;;;5099539;27;20047;-77
2022/07/25 06:20:16;;;;;;;14.68;12.57;;;21.60;86.00;;;;;;5081552;27;20071;-76
2022/07/25 06:22:42;;;;;;;13.52;11.73;;;21.60;85.60;;;;;;5082612;27;20050;-76
2022/07/25 06:25:08;;;;;;;16.17;12.15;;;21.70;85.40;;;;;;5101018;27;20043;-77
2022/07/25 06:27:34;;;;;;;15.15;12.00;;;21.80;85.00;;;;;;5114818;27;20059;-78
2022/07/25 06:30:02;;;;;;;13.70;12.02;;;21.90;84.50;;;;;;5114928;27;20043;-77
2022/07/25 06:32:28;;;;;;;12.93;10.95;;;22.00;83.30;;;;;;5075828;27;20126;-76
2022/07/25 06:34:54;;;;;;;12.60;11.02;;;22.20;82.50;;;;;;5082759;27;20139;-78
2022/07/25 06:37:19;;;;;;;14.60;11.30;;;22.40;81.60;;;;;;5116237;27;20047;-77
2022/07/25 06:39:45;;;;;;;11.13;9.65;;;22.50;80.40;;;;;;5099298;28;20491;-77
2022/07/25 06:42:11;;;;;;;13.20;10.43;;;22.70;78.60;;;;;;5089678;27;20454;-77
2022/07/25 06:44:36;;;;;;;10.75;9.50;;;22.90;78.30;;;;;;5098938;27;20043;-78
2022/07/25 06:47:02;;;;;;;10.30;9.20;;;23.00;77.20;;;;;;5064558;28;20087;-77
2022/07/25 06:49:28;;;;;;;11.48;9.10;;;23.10;75.80;;;;;;5081147;27;20066;-77
2022/07/25 06:51:54;;;;;;;12.45;9.23;;;23.20;75.70;;;;;;5080530;27;20047;-76
2022/07/25 06:54:19;;;;;;;8.93;7.93;;;23.20;75.30;;;;;;5116688;27;20300;-77
2022/07/25 06:56:45;;;;;;;11.88;7.70;;;23.30;74.20;;;;;;5100586;27;20047;-79
2022/07/25 06:59:11;;;;;;;9.27;7.63;;;23.40;73.30;;;;;;5099465;27;20384;-77
2022/07/25 07:01:37;;;;;;;7.93;6.75;;;23.40;73.20;;;;;;5118206;27;20071;-78
2022/07/25 07:04:03;;;;;;;6.28;5.43;;;23.50;72.80;;;;;;5081480;27;20062;-78
2022/07/25 07:06:29;;;;;;;7.80;6.57;;;23.50;71.70;;;;;;5115938;27;20138;-78
2022/07/25 07:08:55;;;;;;;6.97;5.47;;;23.50;71.80;;;;;;5132324;27;20570;-77
2022/07/25 07:11:21;;;;;;;6.55;4.38;;;23.40;71.50;;;;;;5114149;27;20135;-78
2022/07/25 07:13:46;;;;;;;5.57;4.70;;;23.50;69.00;;;;;;5098694;27;20074;-77
2022/07/25 07:16:12;;;;;;;6.45;4.97;;;23.40;68.90;;;;;;5083003;27;20077;-76
2022/07/25 07:18:38;;;;;;;5.82;4.18;;;23.40;69.10;;;;;;5081283;28;20063;-76
2022/07/25 07:21:05;;;;;;;5.05;4.00;;;23.40;69.50;;;;;;5097081;27;20475;-76
2022/07/25 07:23:30;;;;;;;7.45;4.28;;;23.40;69.60;;;;;;5079542;28;20495;-76
2022/07/25 07:25:56;;;;;;;6.07;4.05;;;23.50;69.80;;;;;;5094274;28;20048;-77
2022/07/25 07:28:22;;;;;;;4.90;2.90;;;23.70;69.30;;;;;;5096561;28;20055;-75
2022/07/25 07:30:48;;;;;;;3.15;2.42;;;23.70;67.90;;;;;;5112007;27;20051;-75
2022/07/25 07:33:13;;;;;;;4.55;2.63;;;23.60;66.40;;;;;;5099603;28;20059;-76
2022/07/25 07:35:42;;;;;;;3.45;2.40;;;23.50;66.90;;;;;;5102179;27;20035;-76
2022/07/25 07:38:08;;;;;;;4.45;2.83;;;23.30;67.30;;;;;;5100843;28;20127;-76
2022/07/25 07:40:34;;;;;;;3.75;2.28;;;23.10;68.20;;;;;;5082694;28;20118;-76
2022/07/25 07:43:02;;;;;;;3.65;2.03;;;22.90;68.90;;;;;;5114070;28;20474;-77
2022/07/25 07:45:29;;;;;;;5.72;2.65;;;22.80;68.70;;;;;;5134589;27;20071;-77
2022/07/25 07:47:55;;;;;;;3.28;2.45;;;22.70;70.00;;;;;;5114450;28;20676;-75
2022/07/25 07:50:26;;;;;;;4.68;2.85;;;22.50;72.10;;;;;;5112790;28;20078;-77
2022/07/25 07:52:54;;;;;;;3.65;3.00;;;22.40;73.40;;;;;;5110007;28;20105;-77
2022/07/25 07:58:06;;;;;;;5.97;2.63;;;22.10;75.00;;;;;;5112326;28;20130;-77
2022/07/25 08:00:35;;;;;;;5.72;2.88;;;22.00;75.30;;;;;;5100303;28;20040;-77
2022/07/25 08:03:01;;;;;;;5.07;2.58;;;21.90;75.90;;;;;;5130564;27;20096;-76
2022/07/25 08:05:30;;;;;;;6.30;2.97;;;21.90;76.10;;;;;;5129644;27;20101;-78
2022/07/25 08:07:56;;;;;;;5.60;2.75;;;21.80;75.90;;;;;;5111904;28;20097;-77
2022/07/25 08:10:25;;;;;;;4.55;2.67;;;21.90;75.20;;;;;;5078074;28;20048;-75
2022/07/25 08:12:51;;;;;;;5.78;2.80;;;21.80;75.60;;;;;;5112095;28;20036;-76
2022/07/25 08:15:18;;;;;;;5.50;3.05;;;21.70;75.50;;;;;;5111617;28;20044;-75
2022/07/25 08:17:45;;;;;;;6.15;3.97;;;21.70;75.60;;;;;;5112094;28;20384;-75
2022/07/25 08:20:12;;;;;;;4.43;2.45;;;21.60;76.00;;;;;;5111181;28;20496;-78
2022/07/25 08:22:43;;;;;;;3.85;2.50;;;21.70;75.80;;;;;;5116673;28;20473;-77
2022/07/25 08:25:12;;;;;;;4.15;2.58;;;21.70;75.90;;;;;;5111577;28;20531;-76
2022/07/25 08:27:38;;;;;;;4.78;2.65;;;21.90;75.60;;;;;;5115145;28;20498;-76
2022/07/25 08:30:06;;;;;;;5.10;2.38;;;21.90;75.40;;;;;;5098292;28;20031;-77
2022/07/25 08:32:31;;;;;;;3.70;2.40;;;22.10;75.40;;;;;;5097776;28;20047;-76
2022/07/25 08:34:58;;;;;;;3.75;2.47;;;22.20;75.10;;;;;;5097901;28;20094;-78
2022/07/25 08:37:24;;;;;;;4.78;2.60;;;22.40;75.00;;;;;;5098006;28;20035;-78
2022/07/25 08:39:51;;;;;;;5.18;2.40;;;22.40;74.90;;;;;;5098109;28;20084;-76
2022/07/25 08:42:20;;;;;;;4.32;2.47;;;22.40;73.70;;;;;;5115269;28;20039;-76
2022/07/25 08:44:56;;;;;;;3.13;2.05;;;22.40;74.00;;;;;;5115579;27;20104;-76
2022/07/25 08:47:22;;;;;;;4.40;2.22;;;22.40;74.20;;;;;;5118744;27;20043;-76
2022/07/25 08:49:48;;;;;;;5.10;2.50;;;22.40;74.10;;;;;;5118622;27;20045;-78
2022/07/25 08:52:15;;;;;;;3.00;2.45;;;22.40;73.50;;;;;;5136103;27;20089;-77
2022/07/25 08:54:41;;;;;;;5.32;2.65;;;22.50;73.40;;;;;;5101339;27;20046;-78
2022/07/25 08:57:07;;;;;;;3.70;2.25;;;22.50;73.90;;;;;;5118826;27;20387;-77
2022/07/25 08:59:33;;;;;;;3.97;2.40;;;22.60;73.90;;;;;;5101698;27;20051;-77
2022/07/25 09:02:01;;;;;;;4.32;2.28;;;22.60;73.70;;;;;;5101620;27;20402;-77
2022/07/25 09:04:29;;;;;;;3.47;2.33;;;22.60;74.00;;;;;;5118465;27;20494;-75
2022/07/25 09:06:54;;;;;;;6.57;2.83;;;22.60;73.40;;;;;;5118537;27;20050;-77
2022/07/25 09:09:32;;;;;;;5.05;2.80;;;22.50;74.00;;;;;;5118144;27;20398;-75
2022/07/25 09:11:58;;;;;;;4.32;2.33;;;22.50;74.90;;;;;;5118205;27;20054;-76
2022/07/25 09:14:24;;;;;;;4.13;2.53;;;22.40;76.10;;;;;;5118110;27;20534;-74
2022/07/25 09:16:50;;;;;;;5.60;2.13;;;22.40;76.40;;;;;;5118344;27;20088;-77
2022/07/25 09:19:18;;;;;;;5.18;2.40;;;22.40;76.90;;;;;;5135399;27;20407;-77
2022/07/25 09:21:57;;;;;;;5.65;2.60;;;22.20;77.50;;;;;;5118051;27;20149;-76
2022/07/25 09:24:23;;;;;;;4.50;2.67;;;22.10;78.10;;;;;;5117887;27;20064;-77
2022/07/25 09:26:52;;;;;;;7.07;3.25;;;22.00;79.20;;;;;;5083930;27;20062;-76
2022/07/25 09:29:27;;;;;;;5.32;2.78;;;21.90;79.40;;;;;;5117888;27;20050;-76
2022/07/25 09:31:54;;;;;;;16.58;3.28;;;21.90;80.50;;;;;;5101130;27;20074;-74
2022/07/25 09:34:41;;;;;;;6.30;2.90;;;21.90;80.70;;;;;;5117510;27;20483;-77
2022/07/25 09:37:08;;;;;;;8.13;3.03;;;22.00;80.80;;;;;;5101068;27;20483;-76
2022/07/25 09:39:51;;;;;;;6.85;3.95;;;21.90;80.80;;;;;;5117614;27;20035;-75
2022/07/25 09:42:18;;;;;;;8.35;3.50;;;22.00;80.70;;;;;;5117830;27;20069;-76
2022/07/25 09:44:44;;;;;;;5.32;2.83;;;22.00;80.60;;;;;;5117688;27;20398;-75
2022/07/25 09:47:12;;;;;;;11.60;3.25;;;22.00;80.80;;;;;;5117472;27;20046;-74
2022/07/25 09:49:42;;;;;;;6.45;2.78;;;22.00;80.70;;;;;;5100641;27;20070;-76
2022/07/25 09:52:08;;;;;;;6.97;3.47;;;21.90;80.70;;;;;;5100526;27;20499;-75
2022/07/25 09:54:34;;;;;;;8.65;3.40;;;22.00;81.10;;;;;;5117213;27;20100;-75
2022/07/25 09:57:00;;;;;;;6.68;3.10;;;22.30;80.60;;;;;;5116855;27;20043;-76
2022/07/25 09:59:26;;;;;;;7.32;2.95;;;22.40;79.20;;;;;;5117237;27;20035;-76
2022/07/25 10:02:05;;;;;;;9.38;4.25;;;22.50;78.90;;;;;;5117406;27;20035;-75
2022/07/25 10:04:54;;;;;;;10.32;3.67;;;22.60;78.00;;;;;;5117130;27;20043;-78
2022/07/25 10:07:21;;;;;;;12.25;3.13;;;22.80;77.90;;;;;;5117162;27;20039;-76
2022/07/25 10:09:50;;;;;;;7.32;2.72;;;23.00;77.60;;;;;;5117003;27;20499;-76
2022/07/25 10:12:21;;;;;;;4.65;2.67;;;23.30;76.20;;;;;;5117195;27;20490;-77
2022/07/25 10:15:11;;;;;;;7.85;3.45;;;23.60;75.20;;;;;;5117010;27;20039;-76
2022/07/25 10:17:38;;;;;;;7.97;3.42;;;23.70;74.00;;;;;;5116945;27;20088;-75
2022/07/25 10:20:07;;;;;;;7.10;2.60;;;23.70;73.10;;;;;;5117119;27;20050;-77
2022/07/25 10:22:44;;;;;;;9.85;3.30;;;23.60;72.00;;;;;;5116788;27;20284;-78
2022/07/25 10:25:16;;;;;;;10.45;3.65;;;23.50;73.00;;;;;;5117021;27;20104;-77
2022/07/25 10:27:47;;;;;;;7.43;2.97;;;23.40;73.80;;;;;;5099561;27;20103;-77
2022/07/25 10:30:27;;;;;;;7.35;3.00;;;23.40;74.00;;;;;;5099704;27;20043;-75
2022/07/25 10:32:56;;;;;;;6.85;2.85;;;23.30;72.80;;;;;;5116761;27;20123;-76
2022/07/25 10:35:22;;;;;;;6.93;2.65;;;23.30;72.80;;;;;;5116396;27;20047;-77
2022/07/25 10:37:51;;;;;;;8.35;2.50;;;23.30;73.40;;;;;;5116424;27;20491;-77
2022/07/25 10:40:37;;;;;;;4.28;2.03;;;23.30;73.10;;;;;;5116467;27;20031;-77
2022/07/25 10:43:16;;;;;;;7.95;3.00;;;23.00;71.90;;;;;;5116462;27;20039;-77
2022/07/25 10:45:53;;;;;;;6.60;2.25;;;22.80;72.50;;;;;;5116392;27;20082;-77
2022/07/25 10:48:30;;;;;;;6.15;2.30;;;22.50;73.00;;;;;;5116601;27;20033;-77
2022/07/25 10:50:55;;;;;;;5.88;2.60;;;22.40;73.70;;;;;;5116215;27;20051;-78
2022/07/25 10:53:46;;;;;;;7.40;3.33;;;22.40;74.50;;;;;;5116416;27;20043;-77
2022/07/25 10:56:18;;;;;;;8.60;2.72;;;22.30;74.40;;;;;;5116429;27;20077;-78
2022/07/25 10:58:51;;;;;;;6.80;3.20;;;22.30;74.40;;;;;;5116063;27;20088;-78
2022/07/25 11:01:25;;;;;;;6.77;2.67;;;22.40;74.50;;;;;;5116026;27;20039;-76
2022/07/25 11:03:54;;;;;;;7.30;2.83;;;22.40;74.00;;;;;;5115824;27;20046;-78
2022/07/25 11:06:28;;;;;;;10.98;3.17;;;22.50;74.20;;;;;;5116033;27;20074;-79
2022/07/25 11:08:56;;;;;;;7.43;2.78;;;22.50;73.70;;;;;;5115311;27;20043;-77
2022/07/25 11:11:33;;;;;;;8.70;3.22;;;22.50;73.10;;;;;;5116009;27;20050;-82
2022/07/25 11:14:00;;;;;;;8.32;2.83;;;22.50;73.20;;;;;;5115707;27;20495;-77
2022/07/25 11:16:26;;;;;;;6.75;2.60;;;22.50;73.70;;;;;;5115797;27;20035;-78
2022/07/25 11:18:55;;;;;;;5.80;2.63;;;22.50;73.30;;;;;;5115788;27;20031;-80
2022/07/25 11:21:21;;;;;;;11.82;2.65;;;22.50;73.10;;;;;;5098790;27;20031;-78
2022/07/25 11:23:51;;;;;;;7.13;2.95;;;22.50;73.00;;;;;;5115662;27;20126;-77
2022/07/25 11:26:17;;;;;;;9.00;2.20;;;22.50;73.10;;;;;;5099034;27;20394;-75
2022/07/25 11:28:45;;;;;;;8.20;3.08;;;22.60;73.00;;;;;;5115501;27;20051;-77
2022/07/25 11:31:13;;;;;;;7.75;3.03;;;22.50;73.40;;;;;;5115642;27;20081;-77
2022/07/25 11:33:41;;;;;;;5.47;2.17;;;22.40;73.40;;;;;;5115638;28;20047;-75
2022/07/25 11:36:08;;;;;;;6.85;2.83;;;22.50;73.50;;;;;;5115521;28;20039;-78
2022/07/25 11:38:34;;;;;;;10.25;2.92;;;22.60;73.10;;;;;;5115797;28;20066;-78
2022/07/25 11:41:00;;;;;;;6.63;2.60;;;22.60;72.90;;;;;;5115704;28;20527;-77
2022/07/25 11:43:26;;;;;;;6.53;2.22;;;22.70;71.40;;;;;;5098899;28;20074;-79
2022/07/25 11:46:06;;;;;;;8.60;3.15;;;22.80;70.80;;;;;;5115447;28;20379;-77
2022/07/25 11:48:36;;;;;;;9.93;3.78;;;22.90;68.60;;;;;;5098767;28;20043;-78
2022/07/25 11:51:16;;;;;;;7.63;2.72;;;22.90;68.90;;;;;;5132949;28;20501;-78
2022/07/25 11:53:48;;;;;;;8.32;2.95;;;23.00;67.30;;;;;;5115579;28;20039;-77
2022/07/25 11:56:22;;;;;;;8.15;2.83;;;23.20;66.70;;;;;;5115372;28;20102;-78
2022/07/25 11:58:59;;;;;;;6.65;2.95;;;23.30;67.40;;;;;;5132818;28;20461;-77
2022/07/25 12:01:32;;;;;;;6.75;3.17;;;23.60;67.80;;;;;;5115346;28;20039;-77
2022/07/25 12:04:14;;;;;;;7.27;2.40;;;23.80;66.60;;;;;;5115605;28;20047;-77
2022/07/25 12:06:44;;;;;;;4.15;2.10;;;23.80;65.60;;;;;;5115581;28;20088;-77
2022/07/25 12:09:15;;;;;;;6.63;2.55;;;23.70;66.70;;;;;;5115334;28;20031;-78
2022/07/25 12:11:41;;;;;;;5.95;2.50;;;23.60;65.30;;;;;;5115620;28;20375;-77
2022/07/25 12:14:07;;;;;;;7.82;2.97;;;23.40;66.50;;;;;;5115282;28;20454;-76
2022/07/25 12:16:33;;;;;;;6.80;2.80;;;23.20;68.20;;;;;;5115217;28;20039;-79
2022/07/25 12:18:59;;;;;;;8.93;3.00;;;23.00;69.00;;;;;;5098900;27;20035;-76
2022/07/25 12:21:26;;;;;;;8.88;3.42;;;22.80;70.10;;;;;;5102484;27;20039;-77
2022/07/25 12:23:52;;;;;;;8.82;3.28;;;22.50;71.10;;;;;;5119097;27;20530;-73
2022/07/25 12:26:18;;;;;;;7.22;2.80;;;22.60;71.20;;;;;;5119422;27;20175;-78
2022/07/25 12:28:44;;;;;;;7.80;2.92;;;22.50;71.60;;;;;;5118879;27;20098;-75
2022/07/25 12:31:09;;;;;;;6.88;3.40;;;22.60;71.40;;;;;;5118983;27;20142;-74
2022/07/25 12:33:36;;;;;;;8.70;3.72;;;22.90;71.30;;;;;;5101694;27;20089;-76
2022/07/25 12:36:02;;;;;;;6.82;3.05;;;23.20;70.40;;;;;;5118806;27;20039;-76
2022/07/25 12:38:28;;;;;;;8.60;3.53;;;23.50;69.50;;;;;;5119001;27;20047;-78
2022/07/25 12:40:54;;;;;;;7.43;2.63;;;23.80;69.50;;;;;;5101799;27;20096;-79
2022/07/25 12:43:20;;;;;;;10.00;2.95;;;23.90;68.30;;;;;;5118730;27;20041;-77